sensor_id;sensor_type;location;lat;lon;timestamp;temperature;humidity
44111;DHT22;29774;52.664;5.074;2023-05-07T00:01:53;14.00;91.90
44111;DHT22;29774;52.664;5.074;2023-05-07T00:04:19;14.00;91.90
44111;DHT22;29774;52.664;5.074;2023-05-07T00:06:44;14.00;92.00
44111;DHT22;29774;52.664;5.074;2023-05-07T00:09:10;14.10;92.00
44111;DHT22;29774;52.664;5.074;2023-05-07T00:11:36;14.00;92.10
44111;DHT22;29774;52.664;5.074;2023-05-07T00:14:01;14.10;92.20
44111;DHT22;29774;52.664;5.074;2023-05-07T00:16:27;14.10;92.20
44111;DHT22;29774;52.664;5.074;2023-05-07T00:18:53;14.10;92.30
44111;DHT22;29774;52.664;5.074;2023-05-07T00:21:18;14.10;92.30
44111;DHT22;29774;52.664;5.074;2023-05-07T00:23:44;14.10;92.40
44111;DHT22;29774;52.664;5.074;2023-05-07T00:26:10;14.10;92.40
44111;DHT22;29774;52.664;5.074;2023-05-07T00:28:35;14.10;92.40
44111;DHT22;29774;52.664;5.074;2023-05-07T00:31:01;14.10;92.50
44111;DHT22;29774;52.664;5.074;2023-05-07T00:33:26;14.20;92.50
44111;DHT22;29774;52.664;5.074;2023-05-07T00:35:52;14.10;92.50
44111;DHT22;29774;52.664;5.074;2023-05-07T00:38:19;14.20;92.60
44111;DHT22;29774;52.664;5.074;2023-05-07T00:40:45;14.20;92.60
44111;DHT22;29774;52.664;5.074;2023-05-07T00:43:11;14.20;92.60
44111;DHT22;29774;52.664;5.074;2023-05-07T00:45:38;14.20;92.60
44111;DHT22;29774;52.664;5.074;2023-05-07T00:48:04;14.20;92.60
44111;DHT22;29774;52.664;5.074;2023-05-07T00:50:31;14.10;92.70
44111;DHT22;29774;52.664;5.074;2023-05-07T00:52:58;14.20;92.70
44111;DHT22;29774;52.664;5.074;2023-05-07T00:55:24;14.20;92.70
44111;DHT22;29774;52.664;5.074;2023-05-07T00:57:50;14.20;92.70
44111;DHT22;29774;52.664;5.074;2023-05-07T01:00:17;14.20;92.70
44111;DHT22;29774;52.664;5.074;2023-05-07T01:02:43;14.20;92.70
44111;DHT22;29774;52.664;5.074;2023-05-07T01:05:14;14.20;92.70
44111;DHT22;29774;52.664;5.074;2023-05-07T01:07:42;14.20;92.80
44111;DHT22;29774;52.664;5.074;2023-05-07T01:10:08;14.10;92.70
44111;DHT22;29774;52.664;5.074;2023-05-07T01:12:36;14.20;92.70
44111;DHT22;29774;52.664;5.074;2023-05-07T01:15:03;14.10;92.70
44111;DHT22;29774;52.664;5.074;2023-05-07T01:17:34;14.20;92.70
44111;DHT22;29774;52.664;5.074;2023-05-07T01:19:59;14.20;92.80
44111;DHT22;29774;52.664;5.074;2023-05-07T01:22:33;14.20;92.80
44111;DHT22;29774;52.664;5.074;2023-05-07T01:24:59;14.20;92.80
44111;DHT22;29774;52.664;5.074;2023-05-07T01:27:27;14.20;92.70
44111;DHT22;29774;52.664;5.074;2023-05-07T01:29:52;14.20;92.70
44111;DHT22;29774;52.664;5.074;2023-05-07T01:32:46;14.10;92.80
44111;DHT22;29774;52.664;5.074;2023-05-07T01:35:12;14.20;92.80
44111;DHT22;29774;52.664;5.074;2023-05-07T01:37:39;14.10;92.70
44111;DHT22;29774;52.664;5.074;2023-05-07T01:40:05;14.10;92.70
44111;DHT22;29774;52.664;5.074;2023-05-07T01:42:32;14.10;92.70
44111;DHT22;29774;52.664;5.074;2023-05-07T01:44:58;14.10;92.70
44111;DHT22;29774;52.664;5.074;2023-05-07T01:47:24;14.10;92.70
44111;DHT22;29774;52.664;5.074;2023-05-07T01:49:50;14.00;92.60
44111;DHT22;29774;52.664;5.074;2023-05-07T01:52:16;14.00;92.60
44111;DHT22;29774;52.664;5.074;2023-05-07T01:54:41;14.00;92.60
44111;DHT22;29774;52.664;5.074;2023-05-07T01:57:08;14.00;92.50
44111;DHT22;29774;52.664;5.074;2023-05-07T01:59:33;14.00;92.50
44111;DHT22;29774;52.664;5.074;2023-05-07T02:01:59;14.00;92.50
44111;DHT22;29774;52.664;5.074;2023-05-07T02:04:24;14.00;92.40
44111;DHT22;29774;52.664;5.074;2023-05-07T02:06:50;14.00;92.40
44111;DHT22;29774;52.664;5.074;2023-05-07T02:09:15;14.00;92.50
44111;DHT22;29774;52.664;5.074;2023-05-07T02:11:41;14.00;92.40
44111;DHT22;29774;52.664;5.074;2023-05-07T02:14:07;14.00;92.40
44111;DHT22;29774;52.664;5.074;2023-05-07T02:16:32;14.00;92.40
44111;DHT22;29774;52.664;5.074;2023-05-07T02:18:58;14.00;92.40
44111;DHT22;29774;52.664;5.074;2023-05-07T02:21:24;14.00;92.40
44111;DHT22;29774;52.664;5.074;2023-05-07T02:23:50;14.00;92.40
44111;DHT22;29774;52.664;5.074;2023-05-07T02:26:16;14.00;92.40
44111;DHT22;29774;52.664;5.074;2023-05-07T02:28:41;14.00;92.40
44111;DHT22;29774;52.664;5.074;2023-05-07T02:31:07;14.00;92.40
44111;DHT22;29774;52.664;5.074;2023-05-07T02:33:33;14.00;92.40
44111;DHT22;29774;52.664;5.074;2023-05-07T02:36:10;14.00;92.40
44111;DHT22;29774;52.664;5.074;2023-05-07T02:38:36;14.00;92.40
44111;DHT22;29774;52.664;5.074;2023-05-07T02:41:02;14.00;92.40
44111;DHT22;29774;52.664;5.074;2023-05-07T02:43:27;14.00;92.40
44111;DHT22;29774;52.664;5.074;2023-05-07T02:46:07;14.00;92.30
44111;DHT22;29774;52.664;5.074;2023-05-07T02:48:33;14.00;92.30
44111;DHT22;29774;52.664;5.074;2023-05-07T02:51:00;14.00;92.40
44111;DHT22;29774;52.664;5.074;2023-05-07T02:53:26;14.00;92.40
44111;DHT22;29774;52.664;5.074;2023-05-07T02:55:59;14.00;92.40
44111;DHT22;29774;52.664;5.074;2023-05-07T02:58:25;14.00;92.30
44111;DHT22;29774;52.664;5.074;2023-05-07T03:00:52;14.00;92.40
44111;DHT22;29774;52.664;5.074;2023-05-07T03:03:17;14.00;92.30
44111;DHT22;29774;52.664;5.074;2023-05-07T03:05:43;14.00;92.30
44111;DHT22;29774;52.664;5.074;2023-05-07T03:08:09;13.90;92.30
44111;DHT22;29774;52.664;5.074;2023-05-07T03:10:36;13.90;92.30
44111;DHT22;29774;52.664;5.074;2023-05-07T03:13:02;13.90;92.30
44111;DHT22;29774;52.664;5.074;2023-05-07T03:15:29;14.00;92.30
44111;DHT22;29774;52.664;5.074;2023-05-07T03:17:55;13.90;92.30
44111;DHT22;29774;52.664;5.074;2023-05-07T03:20:20;13.90;92.30
44111;DHT22;29774;52.664;5.074;2023-05-07T03:22:46;13.90;92.30
44111;DHT22;29774;52.664;5.074;2023-05-07T03:25:12;13.90;92.30
44111;DHT22;29774;52.664;5.074;2023-05-07T03:27:38;13.90;92.30
44111;DHT22;29774;52.664;5.074;2023-05-07T03:30:04;13.90;92.30
44111;DHT22;29774;52.664;5.074;2023-05-07T03:32:29;13.90;92.30
44111;DHT22;29774;52.664;5.074;2023-05-07T03:34:55;13.90;92.30
44111;DHT22;29774;52.664;5.074;2023-05-07T03:37:21;13.90;92.30
44111;DHT22;29774;52.664;5.074;2023-05-07T03:39:47;13.90;92.30
44111;DHT22;29774;52.664;5.074;2023-05-07T03:42:12;13.90;92.30
44111;DHT22;29774;52.664;5.074;2023-05-07T03:44:38;13.90;92.30
44111;DHT22;29774;52.664;5.074;2023-05-07T03:47:04;13.90;92.30
44111;DHT22;29774;52.664;5.074;2023-05-07T03:49:29;13.90;92.30
44111;DHT22;29774;52.664;5.074;2023-05-07T03:51:55;13.90;92.30
44111;DHT22;29774;52.664;5.074;2023-05-07T03:54:21;13.80;92.30
44111;DHT22;29774;52.664;5.074;2023-05-07T03:56:46;13.80;92.20
44111;DHT22;29774;52.664;5.074;2023-05-07T03:59:12;13.90;92.30
44111;DHT22;29774;52.664;5.074;2023-05-07T04:01:38;13.80;92.20
44111;DHT22;29774;52.664;5.074;2023-05-07T04:04:04;13.80;92.30
44111;DHT22;29774;52.664;5.074;2023-05-07T04:06:30;13.80;92.30
44111;DHT22;29774;52.664;5.074;2023-05-07T04:08:56;13.80;92.20
44111;DHT22;29774;52.664;5.074;2023-05-07T04:11:22;13.80;92.20
44111;DHT22;29774;52.664;5.074;2023-05-07T04:13:47;13.80;92.20
44111;DHT22;29774;52.664;5.074;2023-05-07T04:16:13;13.80;92.30
44111;DHT22;29774;52.664;5.074;2023-05-07T04:18:38;13.80;92.30
44111;DHT22;29774;52.664;5.074;2023-05-07T04:21:05;13.80;92.30
44111;DHT22;29774;52.664;5.074;2023-05-07T04:23:30;13.80;92.30
44111;DHT22;29774;52.664;5.074;2023-05-07T04:25:56;13.80;92.30
44111;DHT22;29774;52.664;5.074;2023-05-07T04:28:23;13.80;92.40
44111;DHT22;29774;52.664;5.074;2023-05-07T04:30:48;13.80;92.40
44111;DHT22;29774;52.664;5.074;2023-05-07T04:33:14;13.80;92.40
44111;DHT22;29774;52.664;5.074;2023-05-07T04:35:42;13.90;92.40
44111;DHT22;29774;52.664;5.074;2023-05-07T04:38:07;13.80;92.40
44111;DHT22;29774;52.664;5.074;2023-05-07T04:40:35;13.80;92.50
44111;DHT22;29774;52.664;5.074;2023-05-07T04:43:01;13.80;92.50
44111;DHT22;29774;52.664;5.074;2023-05-07T04:45:26;13.80;92.50
44111;DHT22;29774;52.664;5.074;2023-05-07T04:47:52;13.80;92.50
44111;DHT22;29774;52.664;5.074;2023-05-07T04:50:18;13.80;92.50
44111;DHT22;29774;52.664;5.074;2023-05-07T04:52:45;13.80;92.50
44111;DHT22;29774;52.664;5.074;2023-05-07T04:55:10;13.80;92.50
44111;DHT22;29774;52.664;5.074;2023-05-07T04:57:36;13.80;92.50
44111;DHT22;29774;52.664;5.074;2023-05-07T05:00:04;13.80;92.50
44111;DHT22;29774;52.664;5.074;2023-05-07T05:02:29;13.80;92.50
44111;DHT22;29774;52.664;5.074;2023-05-07T05:04:55;13.80;92.60
44111;DHT22;29774;52.664;5.074;2023-05-07T05:07:21;13.80;92.60
44111;DHT22;29774;52.664;5.074;2023-05-07T05:09:46;13.90;92.70
44111;DHT22;29774;52.664;5.074;2023-05-07T05:12:12;13.90;92.70
44111;DHT22;29774;52.664;5.074;2023-05-07T05:14:37;13.90;92.80
44111;DHT22;29774;52.664;5.074;2023-05-07T05:17:03;13.90;92.80
44111;DHT22;29774;52.664;5.074;2023-05-07T05:19:29;14.00;92.90
44111;DHT22;29774;52.664;5.074;2023-05-07T05:21:54;14.00;92.90
44111;DHT22;29774;52.664;5.074;2023-05-07T05:24:20;14.10;93.00
44111;DHT22;29774;52.664;5.074;2023-05-07T05:26:46;14.20;93.10
44111;DHT22;29774;52.664;5.074;2023-05-07T05:29:11;14.20;93.10
44111;DHT22;29774;52.664;5.074;2023-05-07T05:31:37;14.20;93.10
44111;DHT22;29774;52.664;5.074;2023-05-07T05:34:02;14.20;93.10
44111;DHT22;29774;52.664;5.074;2023-05-07T05:36:28;14.20;93.10
44111;DHT22;29774;52.664;5.074;2023-05-07T05:38:55;14.20;93.20
44111;DHT22;29774;52.664;5.074;2023-05-07T05:41:21;14.20;93.20
44111;DHT22;29774;52.664;5.074;2023-05-07T05:43:47;14.30;93.20
44111;DHT22;29774;52.664;5.074;2023-05-07T05:46:12;14.20;93.20
44111;DHT22;29774;52.664;5.074;2023-05-07T05:48:38;14.30;93.20
44111;DHT22;29774;52.664;5.074;2023-05-07T05:51:03;14.20;93.20
44111;DHT22;29774;52.664;5.074;2023-05-07T05:53:29;14.20;93.10
44111;DHT22;29774;52.664;5.074;2023-05-07T05:55:55;14.20;93.10
44111;DHT22;29774;52.664;5.074;2023-05-07T05:58:20;14.20;93.00
44111;DHT22;29774;52.664;5.074;2023-05-07T06:00:46;14.20;92.90
44111;DHT22;29774;52.664;5.074;2023-05-07T06:03:13;14.20;92.80
44111;DHT22;29774;52.664;5.074;2023-05-07T06:05:39;14.20;92.70
44111;DHT22;29774;52.664;5.074;2023-05-07T06:08:05;14.20;92.50
44111;DHT22;29774;52.664;5.074;2023-05-07T06:10:30;14.30;92.40
44111;DHT22;29774;52.664;5.074;2023-05-07T06:12:56;14.20;92.20
44111;DHT22;29774;52.664;5.074;2023-05-07T06:15:21;14.20;92.10
44111;DHT22;29774;52.664;5.074;2023-05-07T06:17:47;14.30;91.90
44111;DHT22;29774;52.664;5.074;2023-05-07T06:20:14;14.30;91.80
44111;DHT22;29774;52.664;5.074;2023-05-07T06:22:40;14.30;91.60
44111;DHT22;29774;52.664;5.074;2023-05-07T06:25:06;14.40;91.50
44111;DHT22;29774;52.664;5.074;2023-05-07T06:27:31;14.50;91.40
44111;DHT22;29774;52.664;5.074;2023-05-07T06:29:57;14.50;91.30
44111;DHT22;29774;52.664;5.074;2023-05-07T06:32:23;14.50;91.20
44111;DHT22;29774;52.664;5.074;2023-05-07T06:34:48;14.50;91.10
44111;DHT22;29774;52.664;5.074;2023-05-07T06:37:14;14.50;91.00
44111;DHT22;29774;52.664;5.074;2023-05-07T06:39:39;14.50;90.80
44111;DHT22;29774;52.664;5.074;2023-05-07T06:42:05;14.40;90.50
44111;DHT22;29774;52.664;5.074;2023-05-07T06:44:31;14.50;90.30
44111;DHT22;29774;52.664;5.074;2023-05-07T06:46:57;14.60;90.20
44111;DHT22;29774;52.664;5.074;2023-05-07T06:49:22;14.60;90.20
44111;DHT22;29774;52.664;5.074;2023-05-07T06:51:48;14.70;90.30
44111;DHT22;29774;52.664;5.074;2023-05-07T06:54:14;14.70;90.10
44111;DHT22;29774;52.664;5.074;2023-05-07T06:56:39;14.70;90.00
44111;DHT22;29774;52.664;5.074;2023-05-07T06:59:06;14.70;89.70
44111;DHT22;29774;52.664;5.074;2023-05-07T07:01:31;14.80;89.50
44111;DHT22;29774;52.664;5.074;2023-05-07T07:03:57;14.80;89.20
44111;DHT22;29774;52.664;5.074;2023-05-07T07:06:23;14.80;89.10
44111;DHT22;29774;52.664;5.074;2023-05-07T07:08:48;14.80;89.10
44111;DHT22;29774;52.664;5.074;2023-05-07T07:11:15;14.90;89.10
44111;DHT22;29774;52.664;5.074;2023-05-07T07:13:41;14.90;89.00
44111;DHT22;29774;52.664;5.074;2023-05-07T07:16:06;15.00;89.00
44111;DHT22;29774;52.664;5.074;2023-05-07T07:18:32;15.10;89.00
44111;DHT22;29774;52.664;5.074;2023-05-07T07:20:58;15.00;88.60
44111;DHT22;29774;52.664;5.074;2023-05-07T07:23:24;15.10;88.40
44111;DHT22;29774;52.664;5.074;2023-05-07T07:25:50;15.10;88.60
44111;DHT22;29774;52.664;5.074;2023-05-07T07:28:16;15.20;88.60
44111;DHT22;29774;52.664;5.074;2023-05-07T07:30:42;15.20;88.20
44111;DHT22;29774;52.664;5.074;2023-05-07T07:33:07;15.30;88.10
44111;DHT22;29774;52.664;5.074;2023-05-07T07:35:33;15.30;87.90
44111;DHT22;29774;52.664;5.074;2023-05-07T07:37:59;15.40;87.90
44111;DHT22;29774;52.664;5.074;2023-05-07T07:40:24;15.50;87.70
44111;DHT22;29774;52.664;5.074;2023-05-07T07:42:51;15.50;87.50
44111;DHT22;29774;52.664;5.074;2023-05-07T07:45:16;15.70;87.50
44111;DHT22;29774;52.664;5.074;2023-05-07T07:47:42;15.80;87.60
44111;DHT22;29774;52.664;5.074;2023-05-07T07:50:08;16.00;87.40
44111;DHT22;29774;52.664;5.074;2023-05-07T07:52:34;16.20;86.90
44111;DHT22;29774;52.664;5.074;2023-05-07T07:55:00;16.20;86.10
44111;DHT22;29774;52.664;5.074;2023-05-07T07:57:26;16.20;85.70
44111;DHT22;29774;52.664;5.074;2023-05-07T07:59:51;16.10;85.50
44111;DHT22;29774;52.664;5.074;2023-05-07T08:02:17;16.20;85.60
44111;DHT22;29774;52.664;5.074;2023-05-07T08:04:43;16.20;85.30
44111;DHT22;29774;52.664;5.074;2023-05-07T08:07:10;16.20;85.60
44111;DHT22;29774;52.664;5.074;2023-05-07T08:09:37;16.40;86.20
44111;DHT22;29774;52.664;5.074;2023-05-07T08:12:03;16.50;85.30
44111;DHT22;29774;52.664;5.074;2023-05-07T08:14:29;16.70;85.20
44111;DHT22;29774;52.664;5.074;2023-05-07T08:16:55;16.90;84.60
44111;DHT22;29774;52.664;5.074;2023-05-07T08:19:21;17.10;84.70
44111;DHT22;29774;52.664;5.074;2023-05-07T08:21:47;17.40;83.90
44111;DHT22;29774;52.664;5.074;2023-05-07T08:24:16;17.70;82.60
44111;DHT22;29774;52.664;5.074;2023-05-07T08:26:44;17.90;81.80
44111;DHT22;29774;52.664;5.074;2023-05-07T08:29:09;17.80;81.00
44111;DHT22;29774;52.664;5.074;2023-05-07T08:31:35;17.70;81.60
44111;DHT22;29774;52.664;5.074;2023-05-07T08:34:01;17.80;81.00
44111;DHT22;29774;52.664;5.074;2023-05-07T08:36:26;18.00;81.60
44111;DHT22;29774;52.664;5.074;2023-05-07T08:38:53;18.50;80.10
44111;DHT22;29774;52.664;5.074;2023-05-07T08:41:20;19.10;78.80
44111;DHT22;29774;52.664;5.074;2023-05-07T08:43:48;19.20;77.40
44111;DHT22;29774;52.664;5.074;2023-05-07T08:46:22;19.40;77.40
44111;DHT22;29774;52.664;5.074;2023-05-07T08:48:49;19.50;75.90
44111;DHT22;29774;52.664;5.074;2023-05-07T08:51:20;19.70;75.80
44111;DHT22;29774;52.664;5.074;2023-05-07T08:53:47;19.40;74.90
44111;DHT22;29774;52.664;5.074;2023-05-07T08:56:14;19.20;75.70
44111;DHT22;29774;52.664;5.074;2023-05-07T08:58:41;19.30;75.80
44111;DHT22;29774;52.664;5.074;2023-05-07T09:01:08;19.40;75.10
44111;DHT22;29774;52.664;5.074;2023-05-07T09:03:36;19.30;75.20
44111;DHT22;29774;52.664;5.074;2023-05-07T09:06:02;19.30;75.20
44111;DHT22;29774;52.664;5.074;2023-05-07T09:08:28;19.50;75.80
44111;DHT22;29774;52.664;5.074;2023-05-07T09:10:54;19.80;74.60
44111;DHT22;29774;52.664;5.074;2023-05-07T09:13:20;19.70;74.10
44111;DHT22;29774;52.664;5.074;2023-05-07T09:15:45;19.60;74.20
44111;DHT22;29774;52.664;5.074;2023-05-07T09:18:12;19.70;74.60
44111;DHT22;29774;52.664;5.074;2023-05-07T09:20:38;19.80;73.90
44111;DHT22;29774;52.664;5.074;2023-05-07T09:23:06;20.10;72.90
44111;DHT22;29774;52.664;5.074;2023-05-07T09:25:33;20.20;73.50
44111;DHT22;29774;52.664;5.074;2023-05-07T09:28:01;20.30;73.30
44111;DHT22;29774;52.664;5.074;2023-05-07T09:30:30;20.50;71.60
44111;DHT22;29774;52.664;5.074;2023-05-07T09:32:58;20.50;70.60
44111;DHT22;29774;52.664;5.074;2023-05-07T09:35:24;20.50;70.80
44111;DHT22;29774;52.664;5.074;2023-05-07T09:37:53;20.30;71.30
44111;DHT22;29774;52.664;5.074;2023-05-07T09:40:25;20.50;71.40
44111;DHT22;29774;52.664;5.074;2023-05-07T09:42:51;20.70;71.70
44111;DHT22;29774;52.664;5.074;2023-05-07T09:45:26;21.10;70.80
44111;DHT22;29774;52.664;5.074;2023-05-07T09:47:55;21.10;68.60
44111;DHT22;29774;52.664;5.074;2023-05-07T09:50:29;21.10;70.10
44111;DHT22;29774;52.664;5.074;2023-05-07T09:52:56;21.20;68.60
44111;DHT22;29774;52.664;5.074;2023-05-07T09:55:22;21.60;68.20
44111;DHT22;29774;52.664;5.074;2023-05-07T09:57:50;21.70;67.30
44111;DHT22;29774;52.664;5.074;2023-05-07T10:00:19;21.70;67.10
44111;DHT22;29774;52.664;5.074;2023-05-07T10:02:49;21.90;65.40
44111;DHT22;29774;52.664;5.074;2023-05-07T10:05:18;21.80;65.90
44111;DHT22;29774;52.664;5.074;2023-05-07T10:07:44;21.70;66.70
44111;DHT22;29774;52.664;5.074;2023-05-07T10:10:10;21.40;66.00
44111;DHT22;29774;52.664;5.074;2023-05-07T10:12:36;21.40;67.80
44111;DHT22;29774;52.664;5.074;2023-05-07T10:15:08;21.50;67.20
44111;DHT22;29774;52.664;5.074;2023-05-07T10:17:37;21.50;66.40
44111;DHT22;29774;52.664;5.074;2023-05-07T10:20:04;21.60;66.20
44111;DHT22;29774;52.664;5.074;2023-05-07T10:22:41;21.80;66.30
44111;DHT22;29774;52.664;5.074;2023-05-07T10:25:21;21.90;66.30
44111;DHT22;29774;52.664;5.074;2023-05-07T10:27:49;21.90;65.20
44111;DHT22;29774;52.664;5.074;2023-05-07T10:30:32;22.50;64.30
44111;DHT22;29774;52.664;5.074;2023-05-07T10:33:02;22.50;65.10
44111;DHT22;29774;52.664;5.074;2023-05-07T10:35:36;22.30;63.40
44111;DHT22;29774;52.664;5.074;2023-05-07T10:38:04;22.40;65.10
44111;DHT22;29774;52.664;5.074;2023-05-07T10:40:31;22.50;65.10
44111;DHT22;29774;52.664;5.074;2023-05-07T10:42:58;22.90;63.30
44111;DHT22;29774;52.664;5.074;2023-05-07T10:45:27;23.20;60.70
44111;DHT22;29774;52.664;5.074;2023-05-07T10:50:34;24.20;58.70
44111;DHT22;29774;52.664;5.074;2023-05-07T10:55:47;24.30;58.40
44111;DHT22;29774;52.664;5.074;2023-05-07T10:58:25;24.40;59.30
44111;DHT22;29774;52.664;5.074;2023-05-07T11:01:00;24.20;58.50
44111;DHT22;29774;52.664;5.074;2023-05-07T11:03:26;24.50;57.70
44111;DHT22;29774;52.664;5.074;2023-05-07T11:06:21;24.70;57.90
44111;DHT22;29774;52.664;5.074;2023-05-07T11:08:56;25.20;55.60
44111;DHT22;29774;52.664;5.074;2023-05-07T11:11:44;25.10;55.50
44111;DHT22;29774;52.664;5.074;2023-05-07T11:14:10;25.00;56.10
44111;DHT22;29774;52.664;5.074;2023-05-07T11:16:36;25.20;55.50
44111;DHT22;29774;52.664;5.074;2023-05-07T11:19:03;25.50;53.90
44111;DHT22;29774;52.664;5.074;2023-05-07T11:21:39;25.70;54.10
44111;DHT22;29774;52.664;5.074;2023-05-07T11:24:09;25.20;53.80
44111;DHT22;29774;52.664;5.074;2023-05-07T11:29:21;24.80;55.00
44111;DHT22;29774;52.664;5.074;2023-05-07T11:31:51;24.70;55.80
44111;DHT22;29774;52.664;5.074;2023-05-07T11:34:24;24.60;56.80
44111;DHT22;29774;52.664;5.074;2023-05-07T11:36:51;24.50;55.70
44111;DHT22;29774;52.664;5.074;2023-05-07T11:39:28;24.20;56.10
44111;DHT22;29774;52.664;5.074;2023-05-07T11:41:54;24.10;57.70
44111;DHT22;29774;52.664;5.074;2023-05-07T11:44:19;24.50;56.20
44111;DHT22;29774;52.664;5.074;2023-05-07T11:46:45;24.60;56.00
44111;DHT22;29774;52.664;5.074;2023-05-07T11:49:11;24.50;55.60
44111;DHT22;29774;52.664;5.074;2023-05-07T11:51:37;24.50;56.10
44111;DHT22;29774;52.664;5.074;2023-05-07T11:54:04;24.30;55.70
44111;DHT22;29774;52.664;5.074;2023-05-07T11:56:34;24.40;55.10
44111;DHT22;29774;52.664;5.074;2023-05-07T11:59:00;24.70;54.80
44111;DHT22;29774;52.664;5.074;2023-05-07T12:01:26;24.80;55.60
44111;DHT22;29774;52.664;5.074;2023-05-07T12:03:52;24.90;55.10
44111;DHT22;29774;52.664;5.074;2023-05-07T12:06:18;24.80;54.50
44111;DHT22;29774;52.664;5.074;2023-05-07T12:08:45;25.00;53.90
44111;DHT22;29774;52.664;5.074;2023-05-07T12:11:14;25.30;53.00
44111;DHT22;29774;52.664;5.074;2023-05-07T12:13:41;25.30;53.60
44111;DHT22;29774;52.664;5.074;2023-05-07T12:16:07;25.40;53.80
44111;DHT22;29774;52.664;5.074;2023-05-07T12:18:37;25.40;52.60
44111;DHT22;29774;52.664;5.074;2023-05-07T12:21:04;25.40;52.10
44111;DHT22;29774;52.664;5.074;2023-05-07T12:23:31;25.80;51.60
44111;DHT22;29774;52.664;5.074;2023-05-07T12:25:56;26.00;50.70
44111;DHT22;29774;52.664;5.074;2023-05-07T12:28:22;25.90;50.60
44111;DHT22;29774;52.664;5.074;2023-05-07T12:30:49;25.80;50.30
44111;DHT22;29774;52.664;5.074;2023-05-07T12:33:20;25.80;50.00
44111;DHT22;29774;52.664;5.074;2023-05-07T12:35:48;25.70;50.70
44111;DHT22;29774;52.664;5.074;2023-05-07T12:38:16;25.20;52.20
44111;DHT22;29774;52.664;5.074;2023-05-07T12:40:47;24.60;53.10
44111;DHT22;29774;52.664;5.074;2023-05-07T12:43:20;24.30;53.90
44111;DHT22;29774;52.664;5.074;2023-05-07T12:45:48;23.90;55.50
44111;DHT22;29774;52.664;5.074;2023-05-07T12:48:14;23.70;57.20
44111;DHT22;29774;52.664;5.074;2023-05-07T12:50:40;23.50;57.30
44111;DHT22;29774;52.664;5.074;2023-05-07T12:53:07;23.20;58.00
44111;DHT22;29774;52.664;5.074;2023-05-07T12:55:41;23.00;58.90
44111;DHT22;29774;52.664;5.074;2023-05-07T12:58:08;22.90;59.40
44111;DHT22;29774;52.664;5.074;2023-05-07T13:03:00;22.50;61.00
44111;DHT22;29774;52.664;5.074;2023-05-07T13:05:25;22.30;61.70
44111;DHT22;29774;52.664;5.074;2023-05-07T13:07:54;22.00;62.50
44111;DHT22;29774;52.664;5.074;2023-05-07T13:10:25;21.90;63.70
44111;DHT22;29774;52.664;5.074;2023-05-07T13:12:51;21.80;63.80
44111;DHT22;29774;52.664;5.074;2023-05-07T13:15:17;21.60;64.10
44111;DHT22;29774;52.664;5.074;2023-05-07T13:17:43;21.40;64.00
44111;DHT22;29774;52.664;5.074;2023-05-07T13:20:09;21.30;64.90
44111;DHT22;29774;52.664;5.074;2023-05-07T13:22:35;21.20;64.70
44111;DHT22;29774;52.664;5.074;2023-05-07T13:25:01;21.10;65.40
44111;DHT22;29774;52.664;5.074;2023-05-07T13:27:27;21.00;65.50
44111;DHT22;29774;52.664;5.074;2023-05-07T13:29:52;20.90;66.40
44111;DHT22;29774;52.664;5.074;2023-05-07T13:32:18;20.70;66.50
44111;DHT22;29774;52.664;5.074;2023-05-07T13:34:43;20.60;67.00
44111;DHT22;29774;52.664;5.074;2023-05-07T13:37:09;20.50;67.50
44111;DHT22;29774;52.664;5.074;2023-05-07T13:39:35;20.50;67.50
44111;DHT22;29774;52.664;5.074;2023-05-07T13:42:00;20.60;67.40
44111;DHT22;29774;52.664;5.074;2023-05-07T13:44:26;20.50;67.20
44111;DHT22;29774;52.664;5.074;2023-05-07T13:46:52;20.40;70.10
44111;DHT22;29774;52.664;5.074;2023-05-07T13:49:17;20.30;72.70
44111;DHT22;29774;52.664;5.074;2023-05-07T13:51:43;20.10;74.10
44111;DHT22;29774;52.664;5.074;2023-05-07T13:54:09;19.90;75.20
44111;DHT22;29774;52.664;5.074;2023-05-07T13:56:34;19.70;75.90
44111;DHT22;29774;52.664;5.074;2023-05-07T13:59:00;19.60;76.50
44111;DHT22;29774;52.664;5.074;2023-05-07T14:01:27;19.50;76.10
44111;DHT22;29774;52.664;5.074;2023-05-07T14:03:52;19.40;76.10
44111;DHT22;29774;52.664;5.074;2023-05-07T14:06:18;19.20;75.60
44111;DHT22;29774;52.664;5.074;2023-05-07T14:08:44;19.20;76.40
44111;DHT22;29774;52.664;5.074;2023-05-07T14:11:09;19.10;75.60
44111;DHT22;29774;52.664;5.074;2023-05-07T14:13:35;19.10;75.00
44111;DHT22;29774;52.664;5.074;2023-05-07T14:16:01;19.10;75.30
44111;DHT22;29774;52.664;5.074;2023-05-07T14:18:26;19.20;75.60
44111;DHT22;29774;52.664;5.074;2023-05-07T14:20:54;19.30;76.00
44111;DHT22;29774;52.664;5.074;2023-05-07T14:23:19;19.40;76.80
44111;DHT22;29774;52.664;5.074;2023-05-07T14:25:47;19.50;78.00
44111;DHT22;29774;52.664;5.074;2023-05-07T14:28:13;19.50;77.50
44111;DHT22;29774;52.664;5.074;2023-05-07T14:30:39;19.50;77.80
44111;DHT22;29774;52.664;5.074;2023-05-07T14:33:04;19.60;76.50
44111;DHT22;29774;52.664;5.074;2023-05-07T14:35:30;19.60;76.60
44111;DHT22;29774;52.664;5.074;2023-05-07T14:37:56;19.70;74.70
44111;DHT22;29774;52.664;5.074;2023-05-07T14:40:21;19.70;73.20
44111;DHT22;29774;52.664;5.074;2023-05-07T14:42:47;19.80;73.60
44111;DHT22;29774;52.664;5.074;2023-05-07T14:45:12;19.80;73.30
44111;DHT22;29774;52.664;5.074;2023-05-07T14:47:38;19.80;73.10
44111;DHT22;29774;52.664;5.074;2023-05-07T14:50:04;19.80;73.80
44111;DHT22;29774;52.664;5.074;2023-05-07T14:52:30;19.80;73.20
44111;DHT22;29774;52.664;5.074;2023-05-07T14:54:55;19.80;72.90
44111;DHT22;29774;52.664;5.074;2023-05-07T14:57:21;19.80;72.50
44111;DHT22;29774;52.664;5.074;2023-05-07T14:59:47;19.90;73.40
44111;DHT22;29774;52.664;5.074;2023-05-07T15:02:13;20.00;72.50
44111;DHT22;29774;52.664;5.074;2023-05-07T15:04:39;20.10;72.00
44111;DHT22;29774;52.664;5.074;2023-05-07T15:07:14;20.10;71.30
44111;DHT22;29774;52.664;5.074;2023-05-07T15:09:43;20.10;71.20
44111;DHT22;29774;52.664;5.074;2023-05-07T15:12:08;20.20;71.10
44111;DHT22;29774;52.664;5.074;2023-05-07T15:14:34;20.10;70.90
44111;DHT22;29774;52.664;5.074;2023-05-07T15:17:00;20.10;70.90
44111;DHT22;29774;52.664;5.074;2023-05-07T15:19:26;20.00;70.60
44111;DHT22;29774;52.664;5.074;2023-05-07T15:21:57;20.00;70.50
44111;DHT22;29774;52.664;5.074;2023-05-07T15:24:25;19.90;70.50
44111;DHT22;29774;52.664;5.074;2023-05-07T15:26:51;19.90;70.60
44111;DHT22;29774;52.664;5.074;2023-05-07T15:29:17;19.80;70.40
44111;DHT22;29774;52.664;5.074;2023-05-07T15:31:43;19.80;69.90
44111;DHT22;29774;52.664;5.074;2023-05-07T15:34:08;19.70;69.60
44111;DHT22;29774;52.664;5.074;2023-05-07T15:36:34;19.70;70.00
44111;DHT22;29774;52.664;5.074;2023-05-07T15:39:00;19.70;70.70